createdAt,value
2023-01-15T00:00:19.253Z,73.73
2023-01-15T00:01:34.985Z,73.42
2023-01-15T00:02:43.677Z,73.14
2023-01-15T00:03:49.233Z,73.05
2023-01-15T00:04:54.995Z,73.25
2023-01-15T00:06:07.408Z,73.27
2023-01-15T00:07:11.130Z,73.31
2023-01-15T00:08:14.924Z,73.08
2023-01-15T00:09:18.741Z,73.41
2023-01-15T00:10:22.400Z,73.21
2023-01-15T00:11:25.951Z,72.92
2023-01-15T00:12:29.515Z,72.92
2023-01-15T00:13:33.190Z,73.04
2023-01-15T00:14:36.846Z,72.75
2023-01-15T00:15:40.874Z,72.93
2023-01-15T00:16:45.508Z,72.94
2023-01-15T00:17:49.212Z,72.83
2023-01-15T00:18:56.317Z,72.43
2023-01-15T00:19:59.805Z,72.72
2023-01-15T00:21:07.331Z,72.38
2023-01-15T00:22:10.758Z,72.80
2023-01-15T00:23:34.393Z,72.70
2023-01-15T00:24:56.366Z,72.58
2023-01-15T00:26:18.458Z,72.77
2023-01-15T00:27:40.714Z,72.68
2023-01-15T00:28:44.353Z,72.82
2023-01-15T00:29:47.908Z,72.75
2023-01-15T00:30:51.533Z,72.41
2023-01-15T00:32:01.931Z,72.49
2023-01-15T00:33:05.589Z,72.33
2023-01-15T00:34:09.585Z,72.54
2023-01-15T00:35:18.015Z,72.42
2023-01-15T00:36:23.212Z,72.14
2023-01-15T00:37:27.268Z,72.36
2023-01-15T00:38:30.918Z,72.09
2023-01-15T00:39:35.752Z,71.87
2023-01-15T00:40:39.270Z,71.95
2023-01-15T00:41:42.843Z,72.37
2023-01-15T00:42:53.890Z,72.34
2023-01-15T00:43:58.359Z,72.22
2023-01-15T00:45:09.987Z,71.78
2023-01-15T00:46:13.985Z,71.65
2023-01-15T00:47:17.459Z,72.11
2023-01-15T00:48:20.945Z,71.70
2023-01-15T00:49:24.788Z,71.95
2023-01-15T00:50:28.439Z,71.61
2023-01-15T00:51:32.675Z,71.66
2023-01-15T00:52:36.476Z,71.10
2023-01-15T00:53:40.348Z,71.60
2023-01-15T00:54:46.107Z,71.60
2023-01-15T00:55:49.759Z,71.40
2023-01-15T00:56:53.298Z,71.41
2023-01-15T00:57:56.789Z,71.22
2023-01-15T00:59:04.075Z,71.15
2023-01-15T01:00:11.816Z,71.35
2023-01-15T01:01:16.177Z,71.03
2023-01-15T01:02:20.470Z,71.30
2023-01-15T01:03:25.261Z,71.30
2023-01-15T01:04:28.831Z,71.39
2023-01-15T01:05:32.794Z,71.08
2023-01-15T01:06:36.424Z,71.11
2023-01-15T01:07:40.239Z,71.27
2023-01-15T01:08:47.546Z,71.27
2023-01-15T01:09:52.283Z,70.97
2023-01-15T01:11:14.852Z,70.98
2023-01-15T01:12:22.015Z,70.96
2023-01-15T01:13:25.836Z,70.80
2023-01-15T01:14:29.761Z,70.88
2023-01-15T01:15:38.183Z,70.70
2023-01-15T01:16:42.456Z,70.67
2023-01-15T01:17:46.290Z,70.67
2023-01-15T01:18:50.088Z,70.94
2023-01-15T01:19:53.844Z,70.96
2023-01-15T01:20:57.553Z,70.53
2023-01-15T01:22:01.186Z,70.45
2023-01-15T01:23:04.840Z,70.87
2023-01-15T01:24:10.416Z,70.82
2023-01-15T01:25:13.895Z,71.15
2023-01-15T01:26:17.647Z,71.05
2023-01-15T01:27:21.393Z,71.25
2023-01-15T01:28:25.116Z,71.48
2023-01-15T01:29:28.860Z,71.27
2023-01-15T01:30:32.461Z,71.06
2023-01-15T01:31:36.221Z,71.42
2023-01-15T01:32:40.295Z,71.29
2023-01-15T01:33:44.557Z,71.33
2023-01-15T01:34:48.137Z,71.79
2023-01-15T01:35:51.979Z,71.88
2023-01-15T01:36:55.747Z,71.99
2023-01-15T01:37:59.483Z,71.97
2023-01-15T01:39:05.421Z,71.58
2023-01-15T01:40:10.092Z,72.09
2023-01-15T01:41:13.560Z,71.83
2023-01-15T01:42:18.964Z,71.96
2023-01-15T01:43:29.617Z,72.03
2023-01-15T01:44:33.187Z,71.84
2023-01-15T01:45:36.844Z,71.86
2023-01-15T01:46:40.370Z,71.85
2023-01-15T01:47:44.715Z,71.48
2023-01-15T01:48:52.531Z,70.84
2023-01-15T01:50:06.677Z,70.25
2023-01-15T01:51:10.528Z,70.43
2023-01-15T01:52:25.447Z,70.83
2023-01-15T01:53:32.254Z,70.89
2023-01-15T01:54:38.835Z,69.70
2023-01-15T01:55:42.898Z,70.06
2023-01-15T01:56:49.949Z,70.16
2023-01-15T01:57:59.924Z,69.59
2023-01-15T01:59:07.109Z,69.90
2023-01-15T02:00:12.608Z,69.80
2023-01-15T02:01:17.842Z,68.79
2023-01-15T02:02:23.484Z,69.11
2023-01-15T02:03:35.706Z,68.96
2023-01-15T02:04:40.746Z,68.42
2023-01-15T02:05:52.717Z,68.48
2023-01-15T02:06:58.958Z,68.11
2023-01-15T02:08:02.494Z,67.76
2023-01-15T02:09:06.797Z,67.69
2023-01-15T02:10:19.761Z,67.57
2023-01-15T02:11:25.033Z,67.60
2023-01-15T02:12:39.293Z,67.75
2023-01-15T02:14:14.162Z,66.88
2023-01-15T02:15:54.369Z,66.45
2023-01-15T02:17:20.572Z,66.00
2023-01-15T02:18:38.183Z,65.56
2023-01-15T02:19:59.306Z,65.25
2023-01-15T02:21:24.702Z,65.11
2023-01-15T02:22:44.981Z,64.69
2023-01-15T02:24:13.488Z,64.48
2023-01-15T02:25:31.134Z,64.66
2023-01-15T02:27:26.585Z,64.13
2023-01-15T02:28:42.693Z,64.04
2023-01-15T02:29:53.136Z,63.95
2023-01-15T02:31:27.110Z,64.13
2023-01-15T02:32:40.968Z,63.41
2023-01-15T02:33:56.466Z,63.64
2023-01-15T02:35:29.548Z,63.45
2023-01-15T02:36:40.453Z,63.23
2023-01-15T02:37:52.186Z,63.63
2023-01-15T02:39:02.429Z,63.58
2023-01-15T02:40:07.602Z,63.25
2023-01-15T02:41:18.061Z,63.42
2023-01-15T02:42:25.999Z,62.75
2023-01-15T02:43:36.822Z,62.77
2023-01-15T02:44:49.775Z,63.00
2023-01-15T02:45:59.333Z,62.80
2023-01-15T02:47:06.366Z,63.16
2023-01-15T02:48:15.655Z,62.73
2023-01-15T02:49:23.836Z,62.84
2023-01-15T02:50:36.503Z,62.36
2023-01-15T02:52:06.622Z,62.14
2023-01-15T02:53:20.688Z,62.03
2023-01-15T02:54:30.508Z,62.40
2023-01-15T02:55:43.215Z,62.48
2023-01-15T02:56:49.999Z,62.62
2023-01-15T02:58:00.129Z,62.20
2023-01-15T02:59:12.313Z,61.91
2023-01-15T03:02:14.111Z,61.51
2023-01-15T03:03:33.770Z,61.79
2023-01-15T03:05:01.027Z,61.93
2023-01-15T03:06:31.908Z,61.55
2023-01-15T03:07:46.903Z,61.39
2023-01-15T03:08:50.844Z,61.33
2023-01-15T03:09:57.577Z,61.29
2023-01-15T03:11:19.201Z,61.24
2023-01-15T03:12:34.544Z,61.41
2023-01-15T03:14:09.244Z,61.23
2023-01-15T03:15:40.577Z,60.75
2023-01-15T03:16:56.681Z,61.15
2023-01-15T03:18:06.026Z,61.10
2023-01-15T03:19:47.165Z,61.17
2023-01-15T03:20:58.876Z,60.38
2023-01-15T03:22:33.516Z,60.36
2023-01-15T03:23:45.768Z,60.09
2023-01-15T03:25:22.079Z,59.95
2023-01-15T03:26:26.051Z,60.43
2023-01-15T03:27:29.910Z,60.31
2023-01-15T03:28:38.251Z,60.13
2023-01-15T03:29:55.837Z,60.03
2023-01-15T03:31:00.234Z,60.09
2023-01-15T03:32:03.988Z,60.05
2023-01-15T03:33:11.780Z,59.84
2023-01-15T03:34:15.828Z,60.11
2023-01-15T03:35:49.945Z,59.99
2023-01-15T03:36:53.672Z,59.77
2023-01-15T03:37:57.229Z,59.81
2023-01-15T03:39:01.341Z,59.79
2023-01-15T03:40:06.953Z,59.44
2023-01-15T03:41:44.503Z,59.72
2023-01-15T03:43:31.737Z,59.43
2023-01-15T03:45:13.112Z,59.47
2023-01-15T03:46:42.637Z,59.63
2023-01-15T03:48:00.739Z,59.59
2023-01-15T03:49:29.340Z,59.68
2023-01-15T03:50:38.459Z,59.44
2023-01-15T03:52:07.131Z,59.08
2023-01-15T03:53:38.242Z,59.37
2023-01-15T03:55:05.108Z,59.22
2023-01-15T03:56:38.348Z,58.94
2023-01-15T03:58:11.983Z,59.23
2023-01-15T03:59:30.950Z,58.80
2023-01-15T04:00:52.616Z,59.17
2023-01-15T04:01:57.943Z,58.97
2023-01-15T04:03:06.257Z,58.98
2023-01-15T04:04:14.081Z,59.13
2023-01-15T04:05:18.820Z,59.41
2023-01-15T04:06:25.848Z,58.88
2023-01-15T04:07:31.560Z,58.89
2023-01-15T04:08:40.818Z,58.50
2023-01-15T04:09:44.566Z,58.48
2023-01-15T04:10:59.619Z,58.73
2023-01-15T04:12:03.537Z,58.63
2023-01-15T04:13:07.564Z,58.79
2023-01-15T04:14:15.074Z,58.73
2023-01-15T04:15:19.288Z,58.10
2023-01-15T04:16:32.654Z,58.39
2023-01-15T04:17:36.206Z,58.46
2023-01-15T04:18:39.836Z,58.16
2023-01-15T04:19:44.462Z,57.92
2023-01-15T04:20:48.999Z,58.25
2023-01-15T04:21:52.564Z,58.36
2023-01-15T04:22:56.147Z,58.97
2023-01-15T04:23:59.764Z,58.52
2023-01-15T04:25:05.506Z,58.31
2023-01-15T04:26:09.289Z,58.23
2023-01-15T04:27:13.380Z,58.25
2023-01-15T04:28:17.105Z,58.31
2023-01-15T04:29:21.101Z,57.99
2023-01-15T04:30:24.669Z,58.19
2023-01-15T04:31:28.159Z,58.26
2023-01-15T04:32:31.694Z,58.32
2023-01-15T04:33:35.249Z,57.92
2023-01-15T04:34:38.814Z,57.92
2023-01-15T04:35:42.315Z,58.11
2023-01-15T04:36:48.271Z,58.22
2023-01-15T04:37:59.874Z,57.90
2023-01-15T04:39:06.243Z,58.06
2023-01-15T04:40:30.753Z,58.14
2023-01-15T04:41:53.168Z,58.11
2023-01-15T04:43:15.744Z,57.99
2023-01-15T04:44:19.473Z,57.70
2023-01-15T04:45:23.555Z,57.76
2023-01-15T04:46:27.100Z,58.24
2023-01-15T04:47:31.937Z,58.02
2023-01-15T04:48:35.555Z,58.10
2023-01-15T04:49:39.429Z,57.84
2023-01-15T04:50:43.392Z,57.99
2023-01-15T04:51:47.454Z,58.02
2023-01-15T04:52:51.509Z,57.92
2023-01-15T04:53:55.039Z,57.96
2023-01-15T04:55:01.575Z,57.70
2023-01-15T04:56:06.559Z,57.77
2023-01-15T04:57:12.701Z,57.71
2023-01-15T04:58:16.361Z,57.81
2023-01-15T04:59:27.006Z,57.68
2023-01-15T05:00:31.061Z,57.79
2023-01-15T05:01:35.432Z,57.90
2023-01-15T05:02:39.172Z,57.57
2023-01-15T05:03:43.174Z,57.81
2023-01-15T05:04:47.477Z,57.61
2023-01-15T05:05:51.452Z,57.92
2023-01-15T05:06:55.376Z,57.77
2023-01-15T05:07:59.112Z,58.22
2023-01-15T05:09:05.253Z,57.86
2023-01-15T05:10:10.231Z,58.02
2023-01-15T05:11:14.241Z,57.98
2023-01-15T05:12:18.541Z,57.86
2023-01-15T05:13:22.593Z,57.95
2023-01-15T05:14:26.499Z,57.95
2023-01-15T05:15:30.253Z,58.10
2023-01-15T05:16:36.243Z,58.04
2023-01-15T05:17:39.878Z,58.00
2023-01-15T05:18:45.616Z,58.04
2023-01-15T05:19:49.638Z,58.07
2023-01-15T05:20:53.167Z,58.05
2023-01-15T05:21:56.934Z,58.02
2023-01-15T05:23:01.041Z,58.09
2023-01-15T05:24:08.954Z,58.14
2023-01-15T05:25:12.606Z,58.05
2023-01-15T05:26:17.015Z,57.93
2023-01-15T05:27:20.912Z,58.18
2023-01-15T05:28:24.900Z,58.06
2023-01-15T05:29:28.808Z,58.28
2023-01-15T05:30:32.336Z,58.08
2023-01-15T05:31:36.156Z,57.98
2023-01-15T05:32:40.132Z,57.97
2023-01-15T05:33:46.844Z,57.94
2023-01-15T05:34:50.654Z,58.27
2023-01-15T05:35:54.503Z,58.21
2023-01-15T05:36:58.037Z,57.78
2023-01-15T05:38:01.734Z,57.74
2023-01-15T05:39:06.261Z,58.11
2023-01-15T05:40:10.802Z,57.99
2023-01-15T05:41:37.295Z,57.87
2023-01-15T05:42:40.726Z,57.77
2023-01-15T05:43:44.591Z,57.60
2023-01-15T05:44:48.214Z,57.99
2023-01-15T05:45:51.903Z,57.93
2023-01-15T05:47:00.232Z,58.00
2023-01-15T05:48:04.046Z,57.82
2023-01-15T05:49:18.962Z,57.93
2023-01-15T05:50:23.546Z,57.77
2023-01-15T05:51:27.177Z,57.70
2023-01-15T05:52:31.335Z,57.63
2023-01-15T05:53:35.105Z,57.97
2023-01-15T05:54:39.241Z,57.94
2023-01-15T05:55:42.964Z,57.88
2023-01-15T05:56:47.886Z,57.76
2023-01-15T05:57:51.591Z,57.73
2023-01-15T05:58:55.482Z,57.94
2023-01-15T05:59:59.908Z,57.50
2023-01-15T06:01:08.851Z,57.59
2023-01-15T06:02:12.889Z,57.54
2023-01-15T06:03:17.690Z,57.43
2023-01-15T06:04:25.241Z,57.50
2023-01-15T06:05:30.326Z,57.34
2023-01-15T06:06:36.191Z,57.44
2023-01-15T06:07:40.087Z,57.22
2023-01-15T06:08:46.547Z,57.27
2023-01-15T06:09:51.231Z,57.21
2023-01-15T06:10:55.419Z,57.28
2023-01-15T06:12:02.404Z,57.18
2023-01-15T06:13:06.016Z,57.05
2023-01-15T06:14:12.886Z,56.63
2023-01-15T06:15:16.674Z,56.89
2023-01-15T06:16:21.998Z,57.14
2023-01-15T06:17:26.587Z,57.07
2023-01-15T06:18:31.390Z,56.79
2023-01-15T06:19:36.740Z,56.68
2023-01-15T06:20:42.372Z,56.44
2023-01-15T06:21:46.580Z,56.88
2023-01-15T06:22:50.349Z,56.33
2023-01-15T06:23:56.941Z,56.26
2023-01-15T06:25:01.587Z,56.41
2023-01-15T06:26:13.944Z,56.40
2023-01-15T06:27:17.641Z,56.17
2023-01-15T06:28:21.286Z,55.89
2023-01-15T06:29:28.256Z,55.92
2023-01-15T06:30:32.146Z,55.78
2023-01-15T06:31:35.854Z,55.93
2023-01-15T06:32:46.617Z,56.00
2023-01-15T06:33:51.074Z,55.70
2023-01-15T06:34:55.182Z,55.75
2023-01-15T06:35:58.813Z,55.46
2023-01-15T06:37:02.463Z,55.75
2023-01-15T06:38:06.197Z,55.66
2023-01-15T06:39:10.669Z,55.49
2023-01-15T06:40:14.601Z,55.60
2023-01-15T06:41:43.502Z,55.33
2023-01-15T06:43:06.270Z,55.19
2023-01-15T06:44:35.120Z,55.17
2023-01-15T06:46:01.059Z,55.56
2023-01-15T06:47:21.934Z,55.05
2023-01-15T06:48:28.139Z,55.33
2023-01-15T06:49:34.598Z,55.69
2023-01-15T06:50:38.845Z,55.33
2023-01-15T06:51:42.559Z,55.54
2023-01-15T06:52:46.066Z,55.63
2023-01-15T06:53:49.659Z,55.32
2023-01-15T06:54:55.792Z,55.29
2023-01-15T06:56:01.812Z,55.42
2023-01-15T06:57:06.463Z,55.31
2023-01-15T06:58:10.397Z,55.10
2023-01-15T06:59:14.468Z,55.18
2023-01-15T07:00:18.925Z,54.97
2023-01-15T07:01:25.609Z,54.82
2023-01-15T07:02:30.720Z,55.01
2023-01-15T07:03:34.881Z,54.56
2023-01-15T07:04:42.103Z,54.99
2023-01-15T07:05:46.010Z,54.68
2023-01-15T07:06:50.946Z,54.43
2023-01-15T07:07:55.073Z,54.88
2023-01-15T07:08:59.000Z,54.10
2023-01-15T07:10:02.855Z,54.39
2023-01-15T07:11:10.060Z,54.42
2023-01-15T07:12:14.423Z,54.34
2023-01-15T07:13:18.483Z,54.50
2023-01-15T07:14:26.859Z,54.53
2023-01-15T07:15:31.358Z,54.75
2023-01-15T07:16:37.963Z,54.61
2023-01-15T07:17:41.614Z,54.69
2023-01-15T07:18:45.417Z,54.43
2023-01-15T07:19:49.106Z,54.40
2023-01-15T07:20:56.912Z,54.44
2023-01-15T07:22:02.153Z,54.34
2023-01-15T07:23:06.849Z,53.99
2023-01-15T07:24:12.512Z,54.17
2023-01-15T07:25:19.428Z,54.07
2023-01-15T07:26:23.178Z,54.10
2023-01-15T07:27:27.856Z,54.33
2023-01-15T07:28:31.756Z,54.27
2023-01-15T07:29:35.625Z,54.24
2023-01-15T07:30:39.180Z,53.94
2023-01-15T07:31:43.691Z,54.04
2023-01-15T07:32:47.389Z,53.88
2023-01-15T07:33:51.284Z,54.16
2023-01-15T07:34:55.170Z,53.97
2023-01-15T07:35:58.813Z,53.97
2023-01-15T07:37:02.350Z,54.09
2023-01-15T07:38:05.904Z,54.13
2023-01-15T07:39:12.183Z,53.80
2023-01-15T07:40:16.300Z,54.04
2023-01-15T07:41:38.663Z,54.13
2023-01-15T07:43:00.745Z,53.86
2023-01-15T07:44:22.831Z,53.94
2023-01-15T07:45:45.214Z,54.06
2023-01-15T07:47:10.422Z,53.76
2023-01-15T07:48:33.357Z,53.56
2023-01-15T07:49:46.032Z,53.77
2023-01-15T07:50:50.140Z,53.70
2023-01-15T07:51:53.888Z,54.06
2023-01-15T07:52:57.747Z,53.69
2023-01-15T07:54:02.467Z,53.46
2023-01-15T07:55:16.509Z,53.49
2023-01-15T07:56:20.394Z,53.65
2023-01-15T07:57:24.652Z,53.54
2023-01-15T07:58:28.440Z,53.55
2023-01-15T07:59:32.223Z,53.57
2023-01-15T08:00:36.105Z,53.70
2023-01-15T08:01:40.007Z,53.74
2023-01-15T08:02:45.137Z,53.39
2023-01-15T08:03:48.960Z,53.67
2023-01-15T08:04:52.601Z,53.37
2023-01-15T08:05:57.715Z,53.38
2023-01-15T08:07:03.621Z,53.43
2023-01-15T08:08:15.097Z,53.27
2023-01-15T08:09:18.690Z,53.11
2023-01-15T08:10:23.051Z,52.65
2023-01-15T08:11:45.670Z,53.15
2023-01-15T08:13:10.591Z,52.76
2023-01-15T08:14:33.027Z,52.79
2023-01-15T08:15:43.954Z,52.50
2023-01-15T08:16:47.862Z,52.76
2023-01-15T08:17:52.794Z,52.20
2023-01-15T08:18:57.301Z,52.34
2023-01-15T08:20:03.273Z,52.56
2023-01-15T08:21:07.435Z,51.97
2023-01-15T08:22:12.122Z,52.05
2023-01-15T08:23:15.670Z,52.04
2023-01-15T08:24:19.323Z,51.69
2023-01-15T08:25:25.730Z,51.81
2023-01-15T08:26:29.226Z,51.86
2023-01-15T08:27:33.566Z,51.61
2023-01-15T08:28:37.147Z,51.56
2023-01-15T08:29:41.303Z,51.69
2023-01-15T08:30:45.126Z,51.53
2023-01-15T08:31:50.223Z,51.38
2023-01-15T08:33:00.916Z,51.36
2023-01-15T08:34:15.860Z,50.80
2023-01-15T08:35:20.225Z,50.76
2023-01-15T08:36:23.770Z,50.83
2023-01-15T08:37:27.475Z,50.53
2023-01-15T08:38:31.319Z,50.76
2023-01-15T08:39:35.169Z,50.31
2023-01-15T08:40:58.830Z,50.47
2023-01-15T08:42:02.781Z,50.48
2023-01-15T08:43:13.747Z,50.63
2023-01-15T08:44:22.007Z,50.46
2023-01-15T08:45:30.034Z,50.38
2023-01-15T08:46:37.199Z,50.29
2023-01-15T08:47:41.411Z,50.45
2023-01-15T08:48:46.551Z,50.08
2023-01-15T08:49:50.373Z,49.72
2023-01-15T08:50:54.347Z,50.05
2023-01-15T08:51:59.203Z,50.26
2023-01-15T08:53:03.599Z,49.89
2023-01-15T08:54:07.268Z,49.58
2023-01-15T08:55:11.368Z,49.92
2023-01-15T08:56:20.455Z,49.73
2023-01-15T08:57:24.261Z,49.83
2023-01-15T08:58:30.929Z,49.64
2023-01-15T08:59:34.609Z,49.78
2023-01-15T09:00:38.488Z,49.57
2023-01-15T09:01:43.060Z,49.62
2023-01-15T09:02:49.274Z,49.16
2023-01-15T09:03:53.756Z,49.23
2023-01-15T09:04:58.091Z,49.21
2023-01-15T09:06:03.244Z,49.36
2023-01-15T09:07:07.167Z,49.06
2023-01-15T09:08:11.016Z,49.10
2023-01-15T09:09:18.869Z,48.74
2023-01-15T09:10:24.094Z,49.05
2023-01-15T09:11:29.067Z,48.64
2023-01-15T09:12:32.859Z,48.73
2023-01-15T09:13:38.209Z,48.97
2023-01-15T09:14:56.683Z,48.59
2023-01-15T09:16:10.781Z,48.90
2023-01-15T09:17:15.498Z,49.00
2023-01-15T09:18:20.825Z,48.78
2023-01-15T09:19:27.341Z,48.90
2023-01-15T09:20:33.019Z,48.77
2023-01-15T09:21:38.287Z,48.68
2023-01-15T09:22:42.243Z,49.20
2023-01-15T09:23:45.777Z,48.94
2023-01-15T09:24:49.461Z,48.70
2023-01-15T09:26:00.458Z,48.72
2023-01-15T09:27:04.524Z,48.66
2023-01-15T09:28:08.986Z,48.68
2023-01-15T09:29:13.500Z,48.35
2023-01-15T09:30:21.404Z,47.98
2023-01-15T09:31:29.002Z,48.21
2023-01-15T09:32:36.092Z,48.08
2023-01-15T09:33:48.071Z,48.42
2023-01-15T09:34:57.537Z,48.42
2023-01-15T09:36:01.160Z,48.35
2023-01-15T09:37:04.783Z,48.19
2023-01-15T09:38:11.899Z,47.92
2023-01-15T09:39:15.503Z,47.74
2023-01-15T09:40:50.758Z,47.80
2023-01-15T09:42:34.006Z,47.72
2023-01-15T09:43:51.212Z,47.47
2023-01-15T09:45:15.903Z,47.78
2023-01-15T09:46:32.071Z,47.36
2023-01-15T09:48:05.933Z,47.44
2023-01-15T09:49:57.917Z,47.34
2023-01-15T09:51:35.703Z,47.50
2023-01-15T09:53:18.928Z,47.48
2023-01-15T09:55:13.959Z,47.41
2023-01-15T09:56:28.422Z,47.38
2023-01-15T09:57:36.775Z,47.39
2023-01-15T09:58:41.222Z,47.48
2023-01-15T09:59:50.971Z,47.54
2023-01-15T10:01:12.740Z,47.58
2023-01-15T10:02:47.061Z,47.03
2023-01-15T10:04:07.181Z,47.19
2023-01-15T10:05:33.596Z,47.56
2023-01-15T10:06:59.200Z,47.17
2023-01-15T10:08:31.715Z,47.25
2023-01-15T10:09:41.213Z,47.43
2023-01-15T10:11:17.690Z,47.25
2023-01-15T10:12:36.901Z,47.23
2023-01-15T10:14:07.425Z,46.62
2023-01-15T10:15:40.291Z,46.75
2023-01-15T10:16:44.601Z,46.84
2023-01-15T10:18:08.309Z,46.94
2023-01-15T10:19:14.651Z,46.45
2023-01-15T10:20:34.572Z,46.46
2023-01-15T10:22:07.268Z,46.40
2023-01-15T10:23:39.117Z,46.41
2023-01-15T10:25:02.555Z,46.56
2023-01-15T10:26:33.192Z,46.12
2023-01-15T10:27:43.510Z,46.33
2023-01-15T10:29:07.749Z,46.23
2023-01-15T10:30:43.828Z,46.13
2023-01-15T10:32:14.968Z,46.29
2023-01-15T10:33:53.230Z,46.02
2023-01-15T10:35:08.705Z,46.29
2023-01-15T10:36:37.013Z,46.08
2023-01-15T10:38:07.497Z,46.08
2023-01-15T10:39:31.279Z,46.17
2023-01-15T10:41:07.004Z,46.33
2023-01-15T10:42:59.313Z,46.56
2023-01-15T10:44:39.961Z,46.41
2023-01-15T10:45:54.456Z,46.31
2023-01-15T10:47:03.490Z,46.18
2023-01-15T10:48:27.715Z,46.08
2023-01-15T10:49:35.140Z,46.00
2023-01-15T10:50:40.225Z,46.03
2023-01-15T10:51:54.146Z,46.44
2023-01-15T10:53:30.961Z,46.20
2023-01-15T10:54:48.843Z,46.10
2023-01-15T10:56:37.005Z,46.26
2023-01-15T10:58:11.367Z,46.19
2023-01-15T10:59:28.010Z,46.11
2023-01-15T11:00:35.861Z,46.10
2023-01-15T11:01:41.526Z,46.20
2023-01-15T11:03:19.322Z,46.27
2023-01-15T11:04:26.539Z,46.33
2023-01-15T11:05:33.657Z,46.76
2023-01-15T11:06:38.329Z,46.52
2023-01-15T11:09:35.291Z,46.89
2023-01-15T11:10:43.900Z,46.74
2023-01-15T11:12:00.333Z,46.73
2023-01-15T11:13:45.075Z,46.80
2023-01-15T11:15:08.232Z,47.05
2023-01-15T11:16:45.359Z,47.29
2023-01-15T11:18:12.733Z,46.97
2023-01-15T11:19:44.770Z,46.90
2023-01-15T11:20:54.917Z,47.00
2023-01-15T11:22:02.145Z,46.97
2023-01-15T11:23:15.732Z,46.90
2023-01-15T11:24:21.178Z,47.11
2023-01-15T11:25:34.600Z,46.58
2023-01-15T11:26:39.895Z,46.99
2023-01-15T11:27:44.116Z,46.64
2023-01-15T11:28:48.112Z,46.76
2023-01-15T11:29:58.548Z,46.23
2023-01-15T11:31:04.570Z,46.17
2023-01-15T11:32:25.496Z,46.30
2023-01-15T11:33:32.310Z,46.21
2023-01-15T11:34:41.031Z,45.89
2023-01-15T11:35:58.661Z,45.35
2023-01-15T11:37:05.331Z,45.57
2023-01-15T11:38:15.523Z,45.54
2023-01-15T11:39:28.373Z,45.88
2023-01-15T11:40:32.015Z,45.85
2023-01-15T11:41:55.022Z,45.84
2023-01-15T11:43:16.983Z,45.77
2023-01-15T11:44:42.136Z,46.22
2023-01-15T11:46:11.303Z,46.18
2023-01-15T11:47:37.874Z,45.64
2023-01-15T11:49:06.494Z,45.75
2023-01-15T11:50:43.978Z,45.43
2023-01-15T11:51:51.335Z,45.41
2023-01-15T11:52:57.703Z,45.34
2023-01-15T11:54:08.350Z,45.04
2023-01-15T11:55:18.469Z,45.47
2023-01-15T11:56:28.655Z,45.32
2023-01-15T11:57:37.518Z,45.52
2023-01-15T11:58:50.550Z,45.50
2023-01-15T11:59:54.589Z,45.78
2023-01-15T12:00:59.770Z,46.05
2023-01-15T12:02:34.549Z,46.08
2023-01-15T12:03:41.537Z,46.35
2023-01-15T12:04:59.026Z,46.29
2023-01-15T12:06:13.138Z,46.39
2023-01-15T12:07:18.508Z,46.67
2023-01-15T12:09:22.865Z,46.95
2023-01-15T12:11:21.092Z,46.96
2023-01-15T12:13:03.952Z,47.89
2023-01-15T12:14:59.129Z,48.50
2023-01-15T12:16:11.656Z,48.60
2023-01-15T12:18:00.478Z,49.33
2023-01-15T12:19:22.886Z,49.44
2023-01-15T12:21:17.485Z,50.03
2023-01-15T12:22:45.918Z,50.44
2023-01-15T12:24:27.024Z,51.55
2023-01-15T12:26:00.476Z,51.51
2023-01-15T12:27:44.139Z,52.17
2023-01-15T12:29:52.531Z,52.96
2023-01-15T12:31:19.079Z,53.94
2023-01-15T12:32:42.670Z,54.17
2023-01-15T12:34:24.913Z,54.60
2023-01-15T12:35:36.051Z,54.92
2023-01-15T12:36:59.488Z,55.77
2023-01-15T12:38:52.257Z,57.35
2023-01-15T12:40:07.079Z,57.64
2023-01-15T12:41:58.876Z,58.60
2023-01-15T12:43:22.951Z,58.32
2023-01-15T12:45:08.969Z,59.26
2023-01-15T12:46:29.188Z,59.76
2023-01-15T12:48:02.418Z,60.31
2023-01-15T12:49:37.744Z,61.31
2023-01-15T12:50:57.559Z,60.92
2023-01-15T12:52:22.146Z,61.65
2023-01-15T12:53:56.213Z,62.42
2023-01-15T12:55:13.606Z,62.40
2023-01-15T12:57:06.823Z,62.63
2023-01-15T12:58:47.274Z,62.40
2023-01-15T13:00:14.299Z,62.47
2023-01-15T13:02:10.182Z,63.59
2023-01-15T13:03:46.427Z,64.32
2023-01-15T13:05:26.245Z,64.65
2023-01-15T13:06:34.208Z,65.00
2023-01-15T13:07:59.768Z,65.06
2023-01-15T13:09:25.015Z,65.25
2023-01-15T13:10:38.674Z,65.16
2023-01-15T13:11:42.892Z,65.38
2023-01-15T13:13:15.520Z,65.20
2023-01-15T13:14:24.670Z,65.63
2023-01-15T13:15:37.620Z,65.64
2023-01-15T13:17:12.834Z,65.89
2023-01-15T13:18:29.191Z,65.91
2023-01-15T13:20:06.230Z,66.23
2023-01-15T13:21:17.287Z,66.40
2023-01-15T13:22:33.930Z,66.38
2023-01-15T13:24:27.736Z,66.67
2023-01-15T13:25:42.183Z,67.05
2023-01-15T13:27:22.383Z,67.02
2023-01-15T13:28:54.284Z,67.18
2023-01-15T13:30:58.370Z,67.19
2023-01-15T13:32:33.668Z,67.15
2023-01-15T13:33:48.986Z,67.26
2023-01-15T13:35:15.212Z,67.12
2023-01-15T13:36:51.481Z,67.43
2023-01-15T13:38:06.419Z,67.35
2023-01-15T13:39:25.367Z,67.72
2023-01-15T13:40:38.408Z,67.21
2023-01-15T13:42:13.312Z,67.26
2023-01-15T13:43:44.518Z,67.10
2023-01-15T13:44:54.344Z,66.82
2023-01-15T13:46:04.555Z,66.50
2023-01-15T13:47:19.822Z,66.53
2023-01-15T13:48:41.176Z,66.86
2023-01-15T13:50:17.213Z,66.66
2023-01-15T13:51:39.251Z,66.99
2023-01-15T13:52:46.213Z,66.56
2023-01-15T13:54:02.101Z,66.80
2023-01-15T13:55:38.902Z,66.88
2023-01-15T13:56:44.774Z,66.70
2023-01-15T13:57:52.695Z,66.47
2023-01-15T13:59:28.247Z,66.77
2023-01-15T14:00:37.386Z,67.00
2023-01-15T14:01:42.321Z,67.30
2023-01-15T14:02:55.823Z,67.08
2023-01-15T14:04:09.779Z,66.56
2023-01-15T14:05:32.107Z,66.34
2023-01-15T14:06:51.163Z,66.46
2023-01-15T14:07:59.299Z,66.48
2023-01-15T14:09:06.842Z,66.22
2023-01-15T14:10:37.230Z,66.09
2023-01-15T14:12:08.382Z,65.82
2023-01-15T14:14:02.413Z,65.72
2023-01-15T14:15:31.269Z,65.49
2023-01-15T14:16:52.581Z,65.45
2023-01-15T14:18:21.884Z,64.93
2023-01-15T14:20:04.902Z,64.72
2023-01-15T14:22:04.637Z,64.88
2023-01-15T14:23:31.338Z,64.67
2023-01-15T14:25:18.870Z,64.47
2023-01-15T14:26:37.709Z,64.01
2023-01-15T14:28:02.335Z,64.41
2023-01-15T14:29:53.580Z,64.20
2023-01-15T14:31:50.862Z,64.19
2023-01-15T14:33:14.199Z,63.83
2023-01-15T14:34:27.114Z,64.18
2023-01-15T14:35:48.777Z,64.14
2023-01-15T14:37:23.151Z,63.67
2023-01-15T14:38:32.003Z,63.69
2023-01-15T14:39:59.215Z,63.73
2023-01-15T14:41:09.184Z,63.55
2023-01-15T14:42:57.079Z,63.02
2023-01-15T14:44:07.915Z,63.46
2023-01-15T14:45:12.547Z,63.08
2023-01-15T14:46:34.606Z,63.47
2023-01-15T14:47:58.435Z,63.14
2023-01-15T14:49:02.959Z,63.35
2023-01-15T14:50:36.341Z,63.85
2023-01-15T14:51:55.236Z,63.54
2023-01-15T14:53:14.685Z,63.18
2023-01-15T14:54:30.925Z,63.51
2023-01-15T14:56:27.400Z,63.39
2023-01-15T14:57:43.176Z,63.42
2023-01-15T14:59:22.787Z,63.63
2023-01-15T15:00:38.612Z,63.34
2023-01-15T15:01:57.657Z,63.47
2023-01-15T15:03:12.716Z,63.75
2023-01-15T15:04:56.653Z,64.07
2023-01-15T15:06:01.784Z,63.94
2023-01-15T15:07:15.624Z,64.14
2023-01-15T15:08:22.807Z,64.17
2023-01-15T15:09:38.387Z,64.57
2023-01-15T15:10:52.538Z,64.40
2023-01-15T15:12:44.631Z,64.87
2023-01-15T15:13:55.191Z,64.83
2023-01-15T15:15:10.768Z,65.09
2023-01-15T15:16:32.606Z,65.25
2023-01-15T15:18:13.755Z,65.68
2023-01-15T15:19:33.691Z,65.38
2023-01-15T15:21:09.846Z,65.68
2023-01-15T15:22:21.248Z,65.39
2023-01-15T15:23:47.182Z,65.49
2023-01-15T15:24:55.350Z,65.40
2023-01-15T15:26:08.131Z,65.72
2023-01-15T15:27:24.413Z,65.90
2023-01-15T15:28:33.674Z,65.97
2023-01-15T15:29:39.714Z,65.73
2023-01-15T15:30:49.266Z,65.67
2023-01-15T15:32:02.593Z,65.82
2023-01-15T15:33:07.546Z,65.94
2023-01-15T15:34:40.944Z,66.23
2023-01-15T15:35:57.345Z,66.08
2023-01-15T15:37:20.685Z,65.94
2023-01-15T15:38:29.537Z,66.35
2023-01-15T15:40:06.292Z,66.36
2023-01-15T15:41:13.687Z,66.15
2023-01-15T15:42:48.298Z,66.27
2023-01-15T15:44:17.865Z,66.19
2023-01-15T15:45:48.950Z,66.05
2023-01-15T15:47:11.824Z,65.82
2023-01-15T15:48:42.449Z,65.80
2023-01-15T15:49:47.732Z,66.31
2023-01-15T15:50:55.214Z,65.81